sensor_id;sensor_type;location;lat;lon;timestamp;P1;durP1;ratioP1;P2;durP2;ratioP2
5867;SDS011;2960;49.142;7.768;2022-10-22T00:02:26;10.30;;;3.90;;
5867;SDS011;2960;49.142;7.768;2022-10-22T00:04:53;9.97;;;4.00;;
5867;SDS011;2960;49.142;7.768;2022-10-22T00:07:22;9.80;;;3.60;;
5867;SDS011;2960;49.142;7.768;2022-10-22T00:09:49;10.13;;;3.90;;
5867;SDS011;2960;49.142;7.768;2022-10-22T00:12:17;9.83;;;3.60;;
5867;SDS011;2960;49.142;7.768;2022-10-22T00:14:44;10.13;;;3.80;;
5867;SDS011;2960;49.142;7.768;2022-10-22T00:17:11;10.40;;;4.00;;
5867;SDS011;2960;49.142;7.768;2022-10-22T00:19:38;10.00;;;3.70;;
5867;SDS011;2960;49.142;7.768;2022-10-22T00:22:06;9.97;;;3.87;;
5867;SDS011;2960;49.142;7.768;2022-10-22T00:24:35;9.90;;;3.83;;
5867;SDS011;2960;49.142;7.768;2022-10-22T00:27:04;10.17;;;3.70;;
5867;SDS011;2960;49.142;7.768;2022-10-22T00:29:33;10.40;;;4.03;;
5867;SDS011;2960;49.142;7.768;2022-10-22T00:32:01;10.60;;;4.03;;
5867;SDS011;2960;49.142;7.768;2022-10-22T00:34:28;10.07;;;3.53;;
5867;SDS011;2960;49.142;7.768;2022-10-22T00:36:55;10.17;;;4.00;;
5867;SDS011;2960;49.142;7.768;2022-10-22T00:39:23;10.40;;;3.93;;
5867;SDS011;2960;49.142;7.768;2022-10-22T00:41:53;10.23;;;3.70;;
5867;SDS011;2960;49.142;7.768;2022-10-22T00:47:33;9.70;;;3.47;;
5867;SDS011;2960;49.142;7.768;2022-10-22T00:50:05;10.67;;;3.80;;
5867;SDS011;2960;49.142;7.768;2022-10-22T00:52:37;9.90;;;3.60;;
5867;SDS011;2960;49.142;7.768;2022-10-22T00:55:05;11.50;;;3.80;;
5867;SDS011;2960;49.142;7.768;2022-10-22T00:57:34;10.40;;;3.83;;
5867;SDS011;2960;49.142;7.768;2022-10-22T01:00:03;9.97;;;3.70;;
5867;SDS011;2960;49.142;7.768;2022-10-22T01:02:31;10.60;;;4.30;;
5867;SDS011;2960;49.142;7.768;2022-10-22T01:04:59;10.07;;;3.60;;
5867;SDS011;2960;49.142;7.768;2022-10-22T01:07:26;10.13;;;3.70;;
5867;SDS011;2960;49.142;7.768;2022-10-22T01:09:57;9.90;;;3.40;;
5867;SDS011;2960;49.142;7.768;2022-10-22T01:12:32;11.40;;;4.27;;
5867;SDS011;2960;49.142;7.768;2022-10-22T01:15:13;10.20;;;3.97;;
5867;SDS011;2960;49.142;7.768;2022-10-22T01:17:50;10.10;;;3.63;;
5867;SDS011;2960;49.142;7.768;2022-10-22T01:23:38;9.90;;;3.50;;
5867;SDS011;2960;49.142;7.768;2022-10-22T01:26:36;9.97;;;3.60;;
5867;SDS011;2960;49.142;7.768;2022-10-22T01:29:21;9.97;;;3.60;;
5867;SDS011;2960;49.142;7.768;2022-10-22T01:31:54;10.43;;;3.97;;
5867;SDS011;2960;49.142;7.768;2022-10-22T01:34:25;12.20;;;4.23;;
5867;SDS011;2960;49.142;7.768;2022-10-22T01:36:54;10.03;;;3.80;;
5867;SDS011;2960;49.142;7.768;2022-10-22T01:39:24;12.20;;;3.50;;
5867;SDS011;2960;49.142;7.768;2022-10-22T01:41:53;9.90;;;3.60;;
5867;SDS011;2960;49.142;7.768;2022-10-22T01:44:24;9.90;;;3.50;;
5867;SDS011;2960;49.142;7.768;2022-10-22T01:46:54;10.00;;;3.50;;
5867;SDS011;2960;49.142;7.768;2022-10-22T01:49:34;9.77;;;3.57;;
5867;SDS011;2960;49.142;7.768;2022-10-22T01:52:40;10.70;;;3.70;;
5867;SDS011;2960;49.142;7.768;2022-10-22T01:55:32;9.70;;;3.60;;
5867;SDS011;2960;49.142;7.768;2022-10-22T01:58:14;9.90;;;3.60;;
5867;SDS011;2960;49.142;7.768;2022-10-22T02:00:53;9.87;;;3.70;;
5867;SDS011;2960;49.142;7.768;2022-10-22T02:03:27;11.73;;;3.40;;
5867;SDS011;2960;49.142;7.768;2022-10-22T02:06:02;10.07;;;3.67;;
5867;SDS011;2960;49.142;7.768;2022-10-22T02:08:37;9.80;;;3.40;;
5867;SDS011;2960;49.142;7.768;2022-10-22T02:11:06;9.90;;;3.60;;
5867;SDS011;2960;49.142;7.768;2022-10-22T02:13:36;11.57;;;3.77;;
5867;SDS011;2960;49.142;7.768;2022-10-22T02:16:09;9.80;;;3.40;;
5867;SDS011;2960;49.142;7.768;2022-10-22T02:18:42;10.20;;;3.80;;
5867;SDS011;2960;49.142;7.768;2022-10-22T02:21:12;9.83;;;3.80;;
5867;SDS011;2960;49.142;7.768;2022-10-22T02:23:41;9.77;;;3.47;;
5867;SDS011;2960;49.142;7.768;2022-10-22T02:26:10;9.60;;;3.27;;
5867;SDS011;2960;49.142;7.768;2022-10-22T02:28:48;10.00;;;3.80;;
5867;SDS011;2960;49.142;7.768;2022-10-22T02:31:25;9.77;;;3.43;;
5867;SDS011;2960;49.142;7.768;2022-10-22T02:34:00;9.90;;;3.53;;
5867;SDS011;2960;49.142;7.768;2022-10-22T02:36:32;9.80;;;3.70;;
5867;SDS011;2960;49.142;7.768;2022-10-22T02:39:02;10.10;;;3.53;;
5867;SDS011;2960;49.142;7.768;2022-10-22T02:41:29;9.70;;;3.50;;
5867;SDS011;2960;49.142;7.768;2022-10-22T02:43:56;9.70;;;3.37;;
5867;SDS011;2960;49.142;7.768;2022-10-22T02:46:25;9.67;;;3.30;;
5867;SDS011;2960;49.142;7.768;2022-10-22T02:48:52;10.00;;;3.13;;
5867;SDS011;2960;49.142;7.768;2022-10-22T02:51:19;9.73;;;3.50;;
5867;SDS011;2960;49.142;7.768;2022-10-22T02:53:46;9.73;;;3.33;;
5867;SDS011;2960;49.142;7.768;2022-10-22T02:56:15;9.60;;;3.37;;
5867;SDS011;2960;49.142;7.768;2022-10-22T02:58:42;9.67;;;3.30;;
5867;SDS011;2960;49.142;7.768;2022-10-22T03:01:09;10.20;;;3.20;;
5867;SDS011;2960;49.142;7.768;2022-10-22T03:03:37;9.63;;;3.20;;
5867;SDS011;2960;49.142;7.768;2022-10-22T03:06:05;9.70;;;3.40;;
5867;SDS011;2960;49.142;7.768;2022-10-22T03:08:32;9.70;;;3.40;;
5867;SDS011;2960;49.142;7.768;2022-10-22T03:10:59;9.83;;;3.63;;
5867;SDS011;2960;49.142;7.768;2022-10-22T03:13:27;9.73;;;3.50;;
5867;SDS011;2960;49.142;7.768;2022-10-22T03:15:54;9.73;;;3.43;;
5867;SDS011;2960;49.142;7.768;2022-10-22T03:18:21;9.80;;;3.43;;
5867;SDS011;2960;49.142;7.768;2022-10-22T03:20:52;9.90;;;3.53;;
5867;SDS011;2960;49.142;7.768;2022-10-22T03:23:31;9.83;;;3.63;;
5867;SDS011;2960;49.142;7.768;2022-10-22T03:25:58;9.87;;;3.47;;
5867;SDS011;2960;49.142;7.768;2022-10-22T03:28:26;9.90;;;3.57;;
5867;SDS011;2960;49.142;7.768;2022-10-22T03:30:53;9.87;;;3.50;;
5867;SDS011;2960;49.142;7.768;2022-10-22T03:33:20;10.00;;;3.50;;
5867;SDS011;2960;49.142;7.768;2022-10-22T03:35:47;9.90;;;3.47;;
5867;SDS011;2960;49.142;7.768;2022-10-22T03:38:15;9.87;;;3.60;;
5867;SDS011;2960;49.142;7.768;2022-10-22T03:40:42;9.80;;;3.60;;
5867;SDS011;2960;49.142;7.768;2022-10-22T03:43:11;9.87;;;3.53;;
5867;SDS011;2960;49.142;7.768;2022-10-22T03:45:38;12.33;;;3.37;;
5867;SDS011;2960;49.142;7.768;2022-10-22T03:48:05;10.10;;;3.43;;
5867;SDS011;2960;49.142;7.768;2022-10-22T03:50:32;9.73;;;3.47;;
5867;SDS011;2960;49.142;7.768;2022-10-22T03:52:59;9.77;;;3.30;;
5867;SDS011;2960;49.142;7.768;2022-10-22T03:55:28;11.80;;;3.43;;
5867;SDS011;2960;49.142;7.768;2022-10-22T03:57:55;9.97;;;3.40;;
5867;SDS011;2960;49.142;7.768;2022-10-22T04:00:22;18.50;;;3.63;;
5867;SDS011;2960;49.142;7.768;2022-10-22T04:02:49;9.57;;;3.10;;
5867;SDS011;2960;49.142;7.768;2022-10-22T04:05:16;10.10;;;3.10;;
5867;SDS011;2960;49.142;7.768;2022-10-22T04:07:43;9.70;;;3.37;;
5867;SDS011;2960;49.142;7.768;2022-10-22T04:10:10;10.30;;;3.80;;
5867;SDS011;2960;49.142;7.768;2022-10-22T04:12:39;9.67;;;3.50;;
5867;SDS011;2960;49.142;7.768;2022-10-22T04:15:06;10.30;;;3.90;;
5867;SDS011;2960;49.142;7.768;2022-10-22T11:54:01;10.80;;;4.87;;
5867;SDS011;2960;49.142;7.768;2022-10-22T11:56:56;10.37;;;4.53;;
5867;SDS011;2960;49.142;7.768;2022-10-22T11:59:44;11.13;;;4.80;;
5867;SDS011;2960;49.142;7.768;2022-10-22T12:02:22;10.60;;;4.57;;
5867;SDS011;2960;49.142;7.768;2022-10-22T12:05:19;11.90;;;4.60;;
5867;SDS011;2960;49.142;7.768;2022-10-22T12:11:13;10.40;;;4.60;;
5867;SDS011;2960;49.142;7.768;2022-10-22T12:14:01;11.20;;;4.80;;
5867;SDS011;2960;49.142;7.768;2022-10-22T12:16:43;10.80;;;4.63;;
5867;SDS011;2960;49.142;7.768;2022-10-22T12:19:13;11.20;;;4.73;;
5867;SDS011;2960;49.142;7.768;2022-10-22T12:21:43;10.90;;;4.90;;
5867;SDS011;2960;49.142;7.768;2022-10-22T12:24:14;10.53;;;4.47;;
5867;SDS011;2960;49.142;7.768;2022-10-22T12:26:46;11.17;;;4.57;;
5867;SDS011;2960;49.142;7.768;2022-10-22T12:29:14;12.47;;;4.60;;
5867;SDS011;2960;49.142;7.768;2022-10-22T12:31:43;10.70;;;4.57;;
5867;SDS011;2960;49.142;7.768;2022-10-22T12:34:12;11.33;;;4.73;;
5867;SDS011;2960;49.142;7.768;2022-10-22T12:36:42;11.00;;;4.70;;
5867;SDS011;2960;49.142;7.768;2022-10-22T12:39:11;13.47;;;4.90;;
5867;SDS011;2960;49.142;7.768;2022-10-22T12:41:42;11.00;;;4.60;;
5867;SDS011;2960;49.142;7.768;2022-10-22T12:44:11;11.10;;;4.70;;
5867;SDS011;2960;49.142;7.768;2022-10-22T12:46:42;10.70;;;4.37;;
5867;SDS011;2960;49.142;7.768;2022-10-22T12:49:13;11.30;;;4.50;;
5867;SDS011;2960;49.142;7.768;2022-10-22T12:51:44;11.80;;;5.10;;
5867;SDS011;2960;49.142;7.768;2022-10-22T12:54:19;10.87;;;4.60;;
5867;SDS011;2960;49.142;7.768;2022-10-22T12:56:53;11.20;;;4.73;;
5867;SDS011;2960;49.142;7.768;2022-10-22T12:59:24;11.10;;;4.80;;
5867;SDS011;2960;49.142;7.768;2022-10-22T13:01:53;10.80;;;4.70;;
5867;SDS011;2960;49.142;7.768;2022-10-22T13:04:29;10.70;;;4.40;;
5867;SDS011;2960;49.142;7.768;2022-10-22T13:07:12;11.07;;;5.00;;
5867;SDS011;2960;49.142;7.768;2022-10-22T13:09:44;11.20;;;4.77;;
5867;SDS011;2960;49.142;7.768;2022-10-22T13:12:22;11.27;;;4.93;;
5867;SDS011;2960;49.142;7.768;2022-10-22T13:14:52;11.03;;;4.83;;
5867;SDS011;2960;49.142;7.768;2022-10-22T13:17:20;11.80;;;5.13;;
5867;SDS011;2960;49.142;7.768;2022-10-22T13:20:10;11.80;;;4.73;;
5867;SDS011;2960;49.142;7.768;2022-10-22T13:22:53;10.77;;;4.63;;
5867;SDS011;2960;49.142;7.768;2022-10-22T13:25:25;11.00;;;4.80;;
5867;SDS011;2960;49.142;7.768;2022-10-22T13:27:55;10.73;;;4.53;;
5867;SDS011;2960;49.142;7.768;2022-10-22T13:30:28;11.67;;;4.57;;
5867;SDS011;2960;49.142;7.768;2022-10-22T13:33:16;11.90;;;4.90;;
5867;SDS011;2960;49.142;7.768;2022-10-22T13:35:50;11.30;;;4.80;;
5867;SDS011;2960;49.142;7.768;2022-10-22T13:38:18;11.67;;;4.80;;
5867;SDS011;2960;49.142;7.768;2022-10-22T13:40:47;10.67;;;4.50;;
5867;SDS011;2960;49.142;7.768;2022-10-22T13:43:18;10.90;;;4.70;;
5867;SDS011;2960;49.142;7.768;2022-10-22T13:45:47;10.60;;;4.77;;
5867;SDS011;2960;49.142;7.768;2022-10-22T13:48:19;12.13;;;4.80;;
5867;SDS011;2960;49.142;7.768;2022-10-22T13:50:47;11.10;;;4.90;;
5867;SDS011;2960;49.142;7.768;2022-10-22T13:53:16;10.87;;;4.63;;
5867;SDS011;2960;49.142;7.768;2022-10-22T13:55:47;11.00;;;4.60;;
5867;SDS011;2960;49.142;7.768;2022-10-22T13:58:15;10.90;;;4.50;;
5867;SDS011;2960;49.142;7.768;2022-10-22T14:00:45;10.63;;;4.53;;
5867;SDS011;2960;49.142;7.768;2022-10-22T14:03:16;10.53;;;4.20;;
5867;SDS011;2960;49.142;7.768;2022-10-22T14:05:47;10.83;;;4.50;;
5867;SDS011;2960;49.142;7.768;2022-10-22T14:08:16;11.07;;;4.80;;
5867;SDS011;2960;49.142;7.768;2022-10-22T14:10:46;10.90;;;4.60;;
5867;SDS011;2960;49.142;7.768;2022-10-22T14:13:14;10.83;;;4.37;;
5867;SDS011;2960;49.142;7.768;2022-10-22T14:15:42;10.87;;;4.60;;
5867;SDS011;2960;49.142;7.768;2022-10-22T14:18:14;11.10;;;4.77;;
5867;SDS011;2960;49.142;7.768;2022-10-22T14:20:50;10.57;;;4.13;;
5867;SDS011;2960;49.142;7.768;2022-10-22T14:23:20;10.83;;;4.67;;
5867;SDS011;2960;49.142;7.768;2022-10-22T14:25:49;11.57;;;4.77;;
5867;SDS011;2960;49.142;7.768;2022-10-22T14:28:16;10.57;;;4.30;;
5867;SDS011;2960;49.142;7.768;2022-10-22T14:30:43;11.00;;;4.67;;
5867;SDS011;2960;49.142;7.768;2022-10-22T14:33:13;11.03;;;4.40;;
5867;SDS011;2960;49.142;7.768;2022-10-22T14:35:44;11.23;;;4.60;;
5867;SDS011;2960;49.142;7.768;2022-10-22T14:38:13;11.20;;;4.57;;
5867;SDS011;2960;49.142;7.768;2022-10-22T14:40:41;12.40;;;4.40;;
5867;SDS011;2960;49.142;7.768;2022-10-22T14:43:09;11.10;;;4.70;;
5867;SDS011;2960;49.142;7.768;2022-10-22T14:45:37;10.93;;;4.40;;
5867;SDS011;2960;49.142;7.768;2022-10-22T14:48:04;11.90;;;4.40;;
5867;SDS011;2960;49.142;7.768;2022-10-22T14:50:33;11.20;;;4.60;;
5867;SDS011;2960;49.142;7.768;2022-10-22T14:53:00;10.80;;;4.33;;
5867;SDS011;2960;49.142;7.768;2022-10-22T14:55:27;10.90;;;4.50;;
5867;SDS011;2960;49.142;7.768;2022-10-22T14:57:54;11.10;;;4.53;;
5867;SDS011;2960;49.142;7.768;2022-10-22T15:00:22;10.57;;;4.20;;
5867;SDS011;2960;49.142;7.768;2022-10-22T15:02:49;10.87;;;4.20;;
5867;SDS011;2960;49.142;7.768;2022-10-22T15:05:16;11.20;;;4.83;;
5867;SDS011;2960;49.142;7.768;2022-10-22T15:07:45;11.23;;;4.97;;
5867;SDS011;2960;49.142;7.768;2022-10-22T15:10:12;11.33;;;4.80;;
5867;SDS011;2960;49.142;7.768;2022-10-22T15:12:39;11.27;;;4.90;;
5867;SDS011;2960;49.142;7.768;2022-10-22T15:15:06;11.10;;;4.30;;
5867;SDS011;2960;49.142;7.768;2022-10-22T15:17:34;12.70;;;4.77;;
5867;SDS011;2960;49.142;7.768;2022-10-22T15:20:01;11.30;;;5.17;;
5867;SDS011;2960;49.142;7.768;2022-10-22T15:22:30;11.37;;;5.10;;
5867;SDS011;2960;49.142;7.768;2022-10-22T15:25:00;11.40;;;4.77;;
5867;SDS011;2960;49.142;7.768;2022-10-22T15:27:29;11.63;;;5.10;;
5867;SDS011;2960;49.142;7.768;2022-10-22T15:29:56;11.37;;;5.17;;
5867;SDS011;2960;49.142;7.768;2022-10-22T15:32:23;11.30;;;5.13;;
5867;SDS011;2960;49.142;7.768;2022-10-22T15:34:52;11.40;;;4.97;;
5867;SDS011;2960;49.142;7.768;2022-10-22T15:37:20;11.87;;;5.37;;
5867;SDS011;2960;49.142;7.768;2022-10-22T15:39:48;11.70;;;5.40;;
5867;SDS011;2960;49.142;7.768;2022-10-22T15:42:16;12.90;;;5.80;;
5867;SDS011;2960;49.142;7.768;2022-10-22T15:44:43;14.60;;;5.63;;
5867;SDS011;2960;49.142;7.768;2022-10-22T15:47:10;12.53;;;5.87;;
5867;SDS011;2960;49.142;7.768;2022-10-22T15:49:38;16.73;;;6.57;;
5867;SDS011;2960;49.142;7.768;2022-10-22T15:52:05;14.63;;;6.80;;
5867;SDS011;2960;49.142;7.768;2022-10-22T15:54:34;15.33;;;6.97;;
5867;SDS011;2960;49.142;7.768;2022-10-22T15:57:01;17.50;;;7.50;;
5867;SDS011;2960;49.142;7.768;2022-10-22T15:59:34;18.67;;;7.07;;
5867;SDS011;2960;49.142;7.768;2022-10-22T16:02:01;17.03;;;6.90;;
5867;SDS011;2960;49.142;7.768;2022-10-22T16:04:29;16.20;;;6.63;;
5867;SDS011;2960;49.142;7.768;2022-10-22T16:06:56;16.90;;;7.63;;
5867;SDS011;2960;49.142;7.768;2022-10-22T16:09:24;17.57;;;8.00;;
5867;SDS011;2960;49.142;7.768;2022-10-22T16:11:52;18.83;;;7.90;;
5867;SDS011;2960;49.142;7.768;2022-10-22T16:14:20;16.67;;;8.20;;
5867;SDS011;2960;49.142;7.768;2022-10-22T16:16:50;15.97;;;7.13;;
5867;SDS011;2960;49.142;7.768;2022-10-22T16:19:20;14.43;;;6.73;;
5867;SDS011;2960;49.142;7.768;2022-10-22T16:21:48;15.23;;;7.20;;
5867;SDS011;2960;49.142;7.768;2022-10-22T16:24:17;15.83;;;6.63;;
5867;SDS011;2960;49.142;7.768;2022-10-22T16:26:45;13.03;;;6.30;;
5867;SDS011;2960;49.142;7.768;2022-10-22T16:29:13;13.40;;;5.90;;
5867;SDS011;2960;49.142;7.768;2022-10-22T16:31:41;14.10;;;5.80;;
5867;SDS011;2960;49.142;7.768;2022-10-22T16:34:11;13.80;;;6.00;;
5867;SDS011;2960;49.142;7.768;2022-10-22T16:36:38;15.43;;;5.90;;
5867;SDS011;2960;49.142;7.768;2022-10-22T16:39:05;12.83;;;5.50;;
5867;SDS011;2960;49.142;7.768;2022-10-22T16:41:33;13.50;;;5.37;;
5867;SDS011;2960;49.142;7.768;2022-10-22T16:44:01;12.17;;;5.40;;
5867;SDS011;2960;49.142;7.768;2022-10-22T16:46:30;12.00;;;5.27;;
5867;SDS011;2960;49.142;7.768;2022-10-22T16:48:58;13.00;;;5.00;;
5867;SDS011;2960;49.142;7.768;2022-10-22T16:51:26;12.00;;;5.50;;
5867;SDS011;2960;49.142;7.768;2022-10-22T16:53:54;12.20;;;5.77;;
5867;SDS011;2960;49.142;7.768;2022-10-22T16:56:22;13.17;;;5.50;;
5867;SDS011;2960;49.142;7.768;2022-10-22T16:58:51;12.10;;;5.47;;
5867;SDS011;2960;49.142;7.768;2022-10-22T17:01:20;13.40;;;5.40;;
5867;SDS011;2960;49.142;7.768;2022-10-22T17:03:50;11.83;;;5.33;;
5867;SDS011;2960;49.142;7.768;2022-10-22T17:06:19;12.10;;;5.63;;
5867;SDS011;2960;49.142;7.768;2022-10-22T17:08:48;11.27;;;4.90;;
5867;SDS011;2960;49.142;7.768;2022-10-22T17:11:16;12.00;;;5.20;;
5867;SDS011;2960;49.142;7.768;2022-10-22T17:13:45;11.63;;;5.10;;
5867;SDS011;2960;49.142;7.768;2022-10-22T17:16:15;11.40;;;4.90;;
5867;SDS011;2960;49.142;7.768;2022-10-22T17:18:45;11.67;;;4.73;;
5867;SDS011;2960;49.142;7.768;2022-10-22T17:21:12;12.47;;;4.47;;
5867;SDS011;2960;49.142;7.768;2022-10-22T17:23:40;11.57;;;4.40;;
5867;SDS011;2960;49.142;7.768;2022-10-22T17:26:12;12.20;;;4.50;;
5867;SDS011;2960;49.142;7.768;2022-10-22T17:28:41;13.03;;;4.50;;
5867;SDS011;2960;49.142;7.768;2022-10-22T17:31:10;12.23;;;4.90;;
5867;SDS011;2960;49.142;7.768;2022-10-22T17:33:42;11.07;;;4.10;;
5867;SDS011;2960;49.142;7.768;2022-10-22T17:36:13;11.47;;;4.50;;
5867;SDS011;2960;49.142;7.768;2022-10-22T17:38:41;11.83;;;4.20;;
5867;SDS011;2960;49.142;7.768;2022-10-22T17:41:16;13.20;;;4.80;;
5867;SDS011;2960;49.142;7.768;2022-10-22T17:43:47;11.23;;;4.07;;
5867;SDS011;2960;49.142;7.768;2022-10-22T17:46:15;14.43;;;4.87;;
5867;SDS011;2960;49.142;7.768;2022-10-22T17:48:47;11.07;;;4.20;;
5867;SDS011;2960;49.142;7.768;2022-10-22T17:51:17;11.90;;;4.87;;
5867;SDS011;2960;49.142;7.768;2022-10-22T17:53:45;11.43;;;4.60;;
5867;SDS011;2960;49.142;7.768;2022-10-22T17:56:16;11.13;;;4.40;;
5867;SDS011;2960;49.142;7.768;2022-10-22T17:58:45;12.00;;;4.80;;
5867;SDS011;2960;49.142;7.768;2022-10-22T18:01:16;11.47;;;4.30;;
5867;SDS011;2960;49.142;7.768;2022-10-22T18:03:45;11.87;;;4.70;;
5867;SDS011;2960;49.142;7.768;2022-10-22T18:06:15;11.73;;;4.40;;
5867;SDS011;2960;49.142;7.768;2022-10-22T18:08:42;11.53;;;4.40;;
5867;SDS011;2960;49.142;7.768;2022-10-22T18:11:10;11.70;;;4.80;;
5867;SDS011;2960;49.142;7.768;2022-10-22T18:13:41;11.50;;;4.40;;
5867;SDS011;2960;49.142;7.768;2022-10-22T18:16:08;13.40;;;4.87;;
5867;SDS011;2960;49.142;7.768;2022-10-22T18:18:35;11.40;;;4.77;;
5867;SDS011;2960;49.142;7.768;2022-10-22T18:21:02;11.40;;;4.50;;
5867;SDS011;2960;49.142;7.768;2022-10-22T18:23:30;11.53;;;4.43;;
5867;SDS011;2960;49.142;7.768;2022-10-22T18:25:58;11.20;;;4.40;;
5867;SDS011;2960;49.142;7.768;2022-10-22T18:28:25;12.23;;;4.50;;
5867;SDS011;2960;49.142;7.768;2022-10-22T18:30:54;11.60;;;4.80;;
5867;SDS011;2960;49.142;7.768;2022-10-22T18:33:21;11.73;;;4.73;;
5867;SDS011;2960;49.142;7.768;2022-10-22T18:35:49;11.90;;;5.00;;
5867;SDS011;2960;49.142;7.768;2022-10-22T18:38:17;11.40;;;4.37;;
5867;SDS011;2960;49.142;7.768;2022-10-22T18:40:47;11.70;;;4.53;;
5867;SDS011;2960;49.142;7.768;2022-10-22T18:43:15;11.90;;;4.90;;
5867;SDS011;2960;49.142;7.768;2022-10-22T18:45:43;12.70;;;4.50;;
5867;SDS011;2960;49.142;7.768;2022-10-22T18:48:14;13.53;;;4.83;;
5867;SDS011;2960;49.142;7.768;2022-10-22T18:50:42;11.20;;;4.40;;
5867;SDS011;2960;49.142;7.768;2022-10-22T18:53:12;12.80;;;4.60;;
5867;SDS011;2960;49.142;7.768;2022-10-22T18:55:40;12.80;;;5.00;;
5867;SDS011;2960;49.142;7.768;2022-10-22T18:58:08;13.77;;;5.00;;
5867;SDS011;2960;49.142;7.768;2022-10-22T19:00:35;12.57;;;4.90;;
5867;SDS011;2960;49.142;7.768;2022-10-22T19:03:05;12.10;;;4.73;;
5867;SDS011;2960;49.142;7.768;2022-10-22T19:05:33;13.30;;;5.03;;
5867;SDS011;2960;49.142;7.768;2022-10-22T19:08:00;13.70;;;4.90;;
5867;SDS011;2960;49.142;7.768;2022-10-22T19:10:27;11.63;;;4.90;;
5867;SDS011;2960;49.142;7.768;2022-10-22T19:12:54;12.10;;;4.63;;
5867;SDS011;2960;49.142;7.768;2022-10-22T19:15:21;11.10;;;4.60;;
5867;SDS011;2960;49.142;7.768;2022-10-22T19:17:48;11.87;;;4.70;;
5867;SDS011;2960;49.142;7.768;2022-10-22T19:20:15;11.80;;;4.77;;
5867;SDS011;2960;49.142;7.768;2022-10-22T19:22:44;11.73;;;4.60;;
5867;SDS011;2960;49.142;7.768;2022-10-22T19:25:11;11.47;;;4.57;;
5867;SDS011;2960;49.142;7.768;2022-10-22T19:27:38;11.23;;;4.77;;
5867;SDS011;2960;49.142;7.768;2022-10-22T19:30:06;12.07;;;4.40;;
5867;SDS011;2960;49.142;7.768;2022-10-22T19:32:34;11.00;;;4.03;;
5867;SDS011;2960;49.142;7.768;2022-10-22T19:35:01;10.97;;;4.00;;
5867;SDS011;2960;49.142;7.768;2022-10-22T19:37:34;11.10;;;4.57;;
5867;SDS011;2960;49.142;7.768;2022-10-22T19:40:03;10.70;;;4.20;;
5867;SDS011;2960;49.142;7.768;2022-10-22T19:42:32;11.70;;;4.50;;
5867;SDS011;2960;49.142;7.768;2022-10-22T19:45:01;11.20;;;4.20;;
5867;SDS011;2960;49.142;7.768;2022-10-22T19:47:29;10.87;;;4.00;;
5867;SDS011;2960;49.142;7.768;2022-10-22T19:49:56;11.43;;;4.80;;
5867;SDS011;2960;49.142;7.768;2022-10-22T19:52:26;12.93;;;5.23;;
5867;SDS011;2960;49.142;7.768;2022-10-22T19:54:53;12.37;;;4.90;;
5867;SDS011;2960;49.142;7.768;2022-10-22T19:57:22;14.87;;;4.67;;
5867;SDS011;2960;49.142;7.768;2022-10-22T19:59:49;14.97;;;4.83;;
5867;SDS011;2960;49.142;7.768;2022-10-22T20:02:16;13.23;;;4.70;;
5867;SDS011;2960;49.142;7.768;2022-10-22T20:04:44;12.67;;;5.00;;
5867;SDS011;2960;49.142;7.768;2022-10-22T20:07:11;12.50;;;4.90;;
5867;SDS011;2960;49.142;7.768;2022-10-22T20:09:38;12.37;;;4.80;;
5867;SDS011;2960;49.142;7.768;2022-10-22T20:12:06;14.90;;;4.83;;
5867;SDS011;2960;49.142;7.768;2022-10-22T20:14:34;13.57;;;4.80;;
5867;SDS011;2960;49.142;7.768;2022-10-22T20:17:02;12.00;;;4.43;;
5867;SDS011;2960;49.142;7.768;2022-10-22T20:19:29;12.53;;;4.47;;
5867;SDS011;2960;49.142;7.768;2022-10-22T20:21:56;12.00;;;4.23;;
5867;SDS011;2960;49.142;7.768;2022-10-22T20:24:23;12.10;;;4.43;;
5867;SDS011;2960;49.142;7.768;2022-10-22T20:26:50;12.57;;;4.47;;
5867;SDS011;2960;49.142;7.768;2022-10-22T20:29:17;12.13;;;4.40;;
5867;SDS011;2960;49.142;7.768;2022-10-22T20:31:46;11.40;;;4.50;;
5867;SDS011;2960;49.142;7.768;2022-10-22T20:34:13;11.20;;;4.57;;
5867;SDS011;2960;49.142;7.768;2022-10-22T20:36:40;11.40;;;4.23;;
5867;SDS011;2960;49.142;7.768;2022-10-22T20:39:11;10.80;;;4.03;;
5867;SDS011;2960;49.142;7.768;2022-10-22T20:41:40;11.27;;;4.40;;
5867;SDS011;2960;49.142;7.768;2022-10-22T20:44:08;10.67;;;4.00;;
5867;SDS011;2960;49.142;7.768;2022-10-22T20:46:40;12.13;;;4.20;;
5867;SDS011;2960;49.142;7.768;2022-10-22T20:49:09;12.13;;;4.50;;
5867;SDS011;2960;49.142;7.768;2022-10-22T20:51:39;13.90;;;5.00;;
5867;SDS011;2960;49.142;7.768;2022-10-22T20:54:06;12.10;;;4.50;;
5867;SDS011;2960;49.142;7.768;2022-10-22T20:56:34;11.20;;;4.50;;
5867;SDS011;2960;49.142;7.768;2022-10-22T20:59:03;11.43;;;4.13;;
5867;SDS011;2960;49.142;7.768;2022-10-22T21:01:33;10.60;;;4.03;;
5867;SDS011;2960;49.142;7.768;2022-10-22T21:04:03;11.40;;;4.20;;
5867;SDS011;2960;49.142;7.768;2022-10-22T21:06:32;11.00;;;4.43;;
5867;SDS011;2960;49.142;7.768;2022-10-22T21:09:02;10.83;;;4.20;;
5867;SDS011;2960;49.142;7.768;2022-10-22T21:11:31;11.23;;;4.50;;
5867;SDS011;2960;49.142;7.768;2022-10-22T21:14:00;11.23;;;4.50;;
5867;SDS011;2960;49.142;7.768;2022-10-22T21:16:28;10.90;;;4.40;;
5867;SDS011;2960;49.142;7.768;2022-10-22T21:18:55;11.27;;;4.13;;
5867;SDS011;2960;49.142;7.768;2022-10-22T21:21:23;11.20;;;4.50;;
5867;SDS011;2960;49.142;7.768;2022-10-22T21:23:51;11.93;;;4.47;;
5867;SDS011;2960;49.142;7.768;2022-10-22T21:26:19;11.37;;;4.63;;
5867;SDS011;2960;49.142;7.768;2022-10-22T21:28:46;10.37;;;4.10;;
5867;SDS011;2960;49.142;7.768;2022-10-22T21:31:13;11.10;;;4.60;;
5867;SDS011;2960;49.142;7.768;2022-10-22T21:33:45;11.10;;;4.20;;
5867;SDS011;2960;49.142;7.768;2022-10-22T21:36:14;11.20;;;4.10;;
5867;SDS011;2960;49.142;7.768;2022-10-22T21:38:41;11.33;;;4.60;;
5867;SDS011;2960;49.142;7.768;2022-10-22T21:41:10;11.30;;;4.67;;
5867;SDS011;2960;49.142;7.768;2022-10-22T21:43:43;11.20;;;4.47;;
5867;SDS011;2960;49.142;7.768;2022-10-22T21:46:12;11.43;;;4.90;;
5867;SDS011;2960;49.142;7.768;2022-10-22T21:48:41;10.87;;;4.40;;
5867;SDS011;2960;49.142;7.768;2022-10-22T21:51:09;10.80;;;4.63;;
5867;SDS011;2960;49.142;7.768;2022-10-22T21:53:38;11.00;;;4.47;;
5867;SDS011;2960;49.142;7.768;2022-10-22T21:56:12;10.97;;;4.70;;
5867;SDS011;2960;49.142;7.768;2022-10-22T21:58:43;10.60;;;3.97;;
5867;SDS011;2960;49.142;7.768;2022-10-22T22:01:10;12.00;;;4.27;;
5867;SDS011;2960;49.142;7.768;2022-10-22T22:03:39;10.87;;;4.43;;
5867;SDS011;2960;49.142;7.768;2022-10-22T22:06:08;10.53;;;4.10;;
5867;SDS011;2960;49.142;7.768;2022-10-22T22:08:35;10.50;;;3.97;;
5867;SDS011;2960;49.142;7.768;2022-10-22T22:11:06;10.80;;;4.63;;
5867;SDS011;2960;49.142;7.768;2022-10-22T22:13:37;11.10;;;4.03;;
5867;SDS011;2960;49.142;7.768;2022-10-22T22:16:05;11.17;;;4.40;;
5867;SDS011;2960;49.142;7.768;2022-10-22T22:18:34;10.50;;;4.00;;
5867;SDS011;2960;49.142;7.768;2022-10-22T22:21:03;11.00;;;4.10;;
5867;SDS011;2960;49.142;7.768;2022-10-22T22:23:35;11.00;;;4.10;;
5867;SDS011;2960;49.142;7.768;2022-10-22T22:26:08;10.87;;;4.33;;
5867;SDS011;2960;49.142;7.768;2022-10-22T22:28:37;10.90;;;4.13;;
5867;SDS011;2960;49.142;7.768;2022-10-22T22:31:10;10.37;;;4.03;;
5867;SDS011;2960;49.142;7.768;2022-10-22T22:33:39;10.90;;;4.50;;
5867;SDS011;2960;49.142;7.768;2022-10-22T22:36:06;10.70;;;4.33;;
5867;SDS011;2960;49.142;7.768;2022-10-22T22:38:34;10.63;;;4.40;;
5867;SDS011;2960;49.142;7.768;2022-10-22T22:41:01;10.53;;;4.30;;
5867;SDS011;2960;49.142;7.768;2022-10-22T22:43:28;10.50;;;4.10;;
5867;SDS011;2960;49.142;7.768;2022-10-22T22:46:00;17.80;;;4.30;;
5867;SDS011;2960;49.142;7.768;2022-10-22T22:48:29;10.73;;;4.37;;
5867;SDS011;2960;49.142;7.768;2022-10-22T22:50:56;10.97;;;4.37;;
5867;SDS011;2960;49.142;7.768;2022-10-22T22:53:24;10.47;;;4.23;;
5867;SDS011;2960;49.142;7.768;2022-10-22T22:56:00;11.77;;;4.03;;
5867;SDS011;2960;49.142;7.768;2022-10-22T22:58:33;10.90;;;4.10;;
5867;SDS011;2960;49.142;7.768;2022-10-22T23:01:13;10.50;;;4.37;;
5867;SDS011;2960;49.142;7.768;2022-10-22T23:03:43;10.47;;;4.10;;
5867;SDS011;2960;49.142;7.768;2022-10-22T23:06:11;11.40;;;4.20;;